Time;durP1;ratioP1;P1;durP2;ratioP2;P2;SDS_P1;SDS_P2;PMS_P1;PMS_P2;Temp;Humidity;BMP_temperature;BMP_pressure;BME280_temperature;BME280_humidity;BME280_pressure;Samples;Min_cycle;Max_cycle;Signal;HPM_P1;HPM_P2
2021/03/04 00:00:07;;;;;;;75.33;40.80;;;;;;;4.06;100.00;101244.84;5009352;28;20434;-72
2021/03/04 00:02:33;;;;;;;73.43;40.73;;;;;;;3.97;100.00;101242.09;5024700;28;20107;-71
2021/03/04 00:05:00;;;;;;;62.47;36.73;;;;;;;3.78;100.00;101244.38;5029768;28;20041;-71
2021/03/04 00:07:26;;;;;;;64.47;37.43;;;;;;;3.71;100.00;101244.28;5025654;28;20053;-71
2021/03/04 00:09:52;;;;;;;85.57;44.17;;;;;;;3.69;100.00;101252.06;5024665;28;20091;-71
2021/03/04 00:12:19;;;;;;;77.83;42.67;;;;;;;3.60;100.00;101246.69;5024931;28;20083;-72
2021/03/04 00:14:45;;;;;;;75.17;43.63;;;;;;;3.58;100.00;101243.19;5008853;28;20166;-71
2021/03/04 00:17:11;;;;;;;82.80;45.27;;;;;;;3.57;100.00;101246.66;5009701;28;20068;-72
2021/03/04 00:19:37;;;;;;;106.17;54.43;;;;;;;3.66;100.00;101249.41;5023368;28;20045;-72
2021/03/04 00:22:04;;;;;;;88.47;48.10;;;;;;;3.60;100.00;101246.69;5023206;28;20178;-71
2021/03/04 00:24:30;;;;;;;85.07;46.53;;;;;;;3.54;100.00;101246.59;5020032;28;20046;-71
2021/03/04 00:26:56;;;;;;;100.07;50.90;;;;;;;3.56;100.00;101237.06;5023011;28;20041;-71
2021/03/04 00:29:22;;;;;;;92.60;52.47;;;;;;;3.45;100.00;101242.09;5008041;28;20391;-71
2021/03/04 00:31:48;;;;;;;91.80;49.67;;;;;;;3.35;100.00;101238.41;5021658;28;20068;-72
2021/03/04 00:34:15;;;;;;;89.13;51.00;;;;;;;3.31;100.00;101239.22;5003585;28;20046;-71
2021/03/04 00:36:41;;;;;;;92.53;45.97;;;;;;;3.20;100.00;101238.16;5005678;28;20045;-72
2021/03/04 00:39:08;;;;;;;100.43;52.00;;;;;;;3.25;100.00;101235.63;5016224;28;21622;-71
2021/03/04 00:41:35;;;;;;;99.53;53.37;;;;;;;3.17;100.00;101232.84;5004512;28;20099;-71
2021/03/04 00:44:04;;;;;;;116.97;58.43;;;;;;;3.29;100.00;101234.84;5006323;28;20652;-71
2021/03/04 00:46:31;;;;;;;116.57;60.77;;;;;;;3.33;100.00;101228.81;5025767;28;20029;-71
2021/03/04 00:48:57;;;;;;;104.93;56.60;;;;;;;3.24;100.00;101224.28;5006216;28;20054;-72
2021/03/04 00:51:24;;;;;;;115.13;62.53;;;;;;;3.25;100.00;101225.16;5011657;28;20388;-72
2021/03/04 00:53:50;;;;;;;108.33;58.37;;;;;;;3.21;100.00;101216.41;5023451;28;20430;-71
2021/03/04 00:56:16;;;;;;;114.03;58.97;;;;;;;3.21;100.00;101211.19;5021851;28;20518;-71
2021/03/04 00:58:42;;;;;;;118.27;60.60;;;;;;;3.27;100.00;101205.19;5017961;28;20033;-71
2021/03/04 01:01:08;;;;;;;135.50;69.37;;;;;;;3.30;100.00;101206.13;5005599;28;20037;-71
2021/03/04 01:03:35;;;;;;;124.33;67.37;;;;;;;3.31;100.00;101205.28;5007352;28;20124;-71
2021/03/04 01:06:01;;;;;;;118.93;64.43;;;;;;;3.26;100.00;101199.09;5021997;28;20045;-71
2021/03/04 01:08:27;;;;;;;114.23;60.43;;;;;;;3.11;100.00;101193.56;5022155;28;20191;-71
2021/03/04 01:10:53;;;;;;;110.80;60.67;;;;;;;3.08;100.00;101196.16;5021150;28;20115;-71
2021/03/04 01:13:21;;;;;;;105.20;57.60;;;;;;;2.95;100.00;101192.44;5001165;28;20049;-71
2021/03/04 01:15:47;;;;;;;107.53;59.83;;;;;;;2.92;100.00;101184.53;5007151;28;20664;-71
2021/03/04 01:18:26;;;;;;;122.90;66.20;;;;;;;2.94;100.00;101184.56;5008013;28;20033;-71
2021/03/04 01:20:52;;;;;;;116.17;60.83;;;;;;;2.82;100.00;101175.66;5006044;28;20136;-72
2021/03/04 01:23:19;;;;;;;104.73;55.30;;;;;;;2.70;100.00;101174.56;4995238;28;20037;-72
2021/03/04 01:25:45;;;;;;;107.87;58.30;;;;;;;2.66;100.00;101173.59;5012359;28;20050;-72
2021/03/04 01:28:12;;;;;;;118.70;61.30;;;;;;;2.69;100.00;101173.69;5014140;28;20057;-72
2021/03/04 01:30:38;;;;;;;106.67;59.60;;;;;;;2.69;100.00;101173.69;5012268;28;20107;-72
2021/03/04 01:33:16;;;;;;;104.80;56.73;;;;;;;2.73;100.00;101170.25;5018789;28;21822;-72
2021/03/04 01:35:42;;;;;;;130.10;67.87;;;;;;;2.86;100.00;101168.78;5013932;28;20041;-72
2021/03/04 01:38:10;;;;;;;126.83;66.03;;;;;;;2.99;100.00;101177.69;5011876;28;21007;-72
2021/03/04 01:40:36;;;;;;;116.00;62.30;;;;;;;3.02;100.00;101165.56;5013384;28;20045;-72
2021/03/04 01:43:02;;;;;;;114.70;61.30;;;;;;;3.05;100.00;101170.88;5013648;28;20128;-72
2021/03/04 01:45:28;;;;;;;99.47;53.13;;;;;;;3.06;100.00;101176.97;5013185;28;20037;-72
2021/03/04 01:47:55;;;;;;;108.23;56.93;;;;;;;3.07;100.00;101160.44;5011942;28;20450;-72
2021/03/04 01:50:23;;;;;;;105.03;55.87;;;;;;;3.06;100.00;101149.13;5024223;28;20569;-73
2021/03/04 01:52:49;;;;;;;111.33;58.37;;;;;;;3.22;100.00;101149.41;5014960;28;20332;-72
2021/03/04 01:55:17;;;;;;;102.73;57.93;;;;;;;3.29;100.00;101153.88;5012325;28;20076;-72
2021/03/04 01:57:45;;;;;;;126.63;67.77;;;;;;;3.36;100.00;101151.41;5008686;28;20064;-72
2021/03/04 02:00:12;;;;;;;108.73;60.60;;;;;;;3.37;100.00;101150.56;5014438;28;20111;-72
2021/03/04 02:03:31;;;;;;;105.93;55.20;;;;;;;3.37;100.00;101141.84;4983123;28;20041;-72
2021/03/04 02:06:19;;;;;;;115.07;58.67;;;;;;;3.41;100.00;101146.25;5012637;28;20048;-72
2021/03/04 02:08:55;;;;;;;113.13;58.40;;;;;;;3.47;100.00;101148.09;5005318;28;20088;-72
2021/03/04 02:11:27;;;;;;;96.13;51.77;;;;;;;3.47;100.00;101148.97;5019669;28;20045;-72
2021/03/04 02:14:04;;;;;;;103.83;54.63;;;;;;;3.51;100.00;101149.88;4989875;28;20122;-72
2021/03/04 02:16:51;;;;;;;90.00;51.23;;;;;;;3.51;100.00;101147.25;5005444;28;20037;-72
2021/03/04 02:20:00;;;;;;;103.43;58.15;;;;;;;3.56;100.00;101154.34;5014198;28;20042;-72
2021/03/04 02:22:45;;;;;;;94.60;51.93;;;;;;;3.57;100.00;101147.38;5015374;28;20992;-72
2021/03/04 02:25:11;;;;;;;94.97;49.53;;;;;;;3.59;100.00;101151.75;5004363;28;20038;-72
2021/03/04 02:27:39;;;;;;;98.17;51.57;;;;;;;3.67;100.00;101155.38;5020160;28;20076;-72
2021/03/04 02:30:17;;;;;;;102.40;53.33;;;;;;;3.69;100.00;101147.53;5003293;28;20033;-72
2021/03/04 02:32:58;;;;;;;95.80;51.37;;;;;;;3.71;100.00;101145.84;5019112;28;20179;-72
2021/03/04 02:35:30;;;;;;;101.20;53.87;;;;;;;3.75;100.00;101146.78;5022658;28;20460;-72
2021/03/04 02:37:58;;;;;;;97.97;53.97;;;;;;;3.77;100.00;101150.28;5021221;28;20096;-72
2021/03/04 02:40:26;;;;;;;96.47;50.00;;;;;;;3.75;100.00;101158.09;5018250;28;20095;-72
2021/03/04 02:42:52;;;;;;;93.63;50.20;;;;;;;3.75;100.00;101152.00;5015927;28;20434;-72
2021/03/04 02:45:24;;;;;;;92.60;48.53;;;;;;;3.77;100.00;101155.50;5004115;28;20046;-72
2021/03/04 02:47:51;;;;;;;94.80;49.00;;;;;;;3.76;100.00;101146.78;5005925;28;20123;-72
2021/03/04 02:50:18;;;;;;;90.07;49.80;;;;;;;3.75;100.00;101147.66;5002084;28;20033;-72
2021/03/04 02:52:45;;;;;;;74.83;42.40;;;;;;;3.77;100.00;101147.66;5003427;28;20049;-72
2021/03/04 02:55:11;;;;;;;83.07;44.80;;;;;;;3.78;100.00;101145.06;5021158;28;20045;-72
2021/03/04 02:57:43;;;;;;;77.30;42.20;;;;;;;3.76;100.00;101140.69;5002558;28;20045;-72
2021/03/04 03:00:12;;;;;;;77.30;45.40;;;;;;;3.75;100.00;101146.78;5003928;28;20104;-72
2021/03/04 03:02:40;;;;;;;75.57;41.43;;;;;;;3.76;100.00;101141.56;5017642;28;20046;-72
2021/03/04 03:05:09;;;;;;;81.93;46.30;;;;;;;3.76;100.00;101145.91;5022995;28;20609;-72
2021/03/04 03:07:36;;;;;;;76.20;41.93;;;;;;;3.76;100.00;101151.13;5023191;28;20087;-72
2021/03/04 03:10:03;;;;;;;79.20;43.40;;;;;;;3.75;100.00;101146.78;5027009;28;20037;-72
2021/03/04 03:12:31;;;;;;;82.17;43.13;;;;;;;3.80;100.00;101143.38;5023191;28;20697;-72
2021/03/04 03:14:59;;;;;;;70.40;40.47;;;;;;;3.78;100.00;101152.03;5007400;28;20045;-72
2021/03/04 03:17:25;;;;;;;77.17;41.10;;;;;;;3.74;100.00;101139.78;5008673;28;20041;-72
2021/03/04 03:19:59;;;;;;;72.25;40.75;;;;;;;3.73;100.00;101146.75;5021201;28;20069;-72
2021/03/04 03:22:25;;;;;;;74.40;39.50;;;;;;;3.68;100.00;101151.91;5041473;28;20042;-72
2021/03/04 03:24:51;;;;;;;76.10;40.33;;;;;;;3.71;99.24;101150.22;5025762;28;20204;-72
2021/03/04 03:27:17;;;;;;;68.27;40.57;;;;;;;3.67;99.73;101159.72;5026588;28;20046;-72
2021/03/04 03:29:43;;;;;;;72.47;39.83;;;;;;;3.67;99.69;101160.59;5021056;28;20438;-72
2021/03/04 03:32:11;;;;;;;71.00;40.10;;;;;;;3.63;99.22;101158.81;4991985;28;20054;-72
2021/03/04 03:34:39;;;;;;;71.73;39.50;;;;;;;3.62;99.48;101158.78;5021588;28;20030;-72
2021/03/04 03:37:06;;;;;;;71.17;37.07;;;;;;;3.59;99.71;101156.09;5006638;28;20099;-72
2021/03/04 03:39:33;;;;;;;71.17;37.93;;;;;;;3.58;100.00;101157.84;5019533;28;20053;-72
2021/03/04 03:42:01;;;;;;;67.17;37.17;;;;;;;3.49;100.00;101152.47;5027705;28;20041;-72
2021/03/04 03:44:28;;;;;;;72.73;37.07;;;;;;;3.49;99.88;101147.25;5026694;28;20034;-72
2021/03/04 03:46:55;;;;;;;75.20;37.17;;;;;;;3.45;99.74;101141.94;5009851;28;20122;-72
2021/03/04 03:49:23;;;;;;;70.47;36.07;;;;;;;3.42;98.59;101153.22;5024297;28;20044;-72
2021/03/04 03:51:49;;;;;;;64.07;34.80;;;;;;;3.24;99.22;101148.56;5016775;28;20465;-72
2021/03/04 03:54:16;;;;;;;66.27;32.87;;;;;;;3.22;99.06;101152.91;5001969;28;21886;-72
2021/03/04 03:56:43;;;;;;;57.57;29.10;;;;;;;3.27;97.91;101164.28;4988616;28;20572;-72
2021/03/04 03:59:10;;;;;;;61.87;30.50;;;;;;;3.14;97.44;101144.06;5003747;28;21968;-72
2021/03/04 04:01:37;;;;;;;61.83;30.80;;;;;;;3.04;97.95;101143.00;5001057;28;20514;-72
2021/03/04 04:04:03;;;;;;;60.30;28.73;;;;;;;3.04;98.05;101147.34;5008859;28;20049;-72
2021/03/04 04:06:31;;;;;;;57.77;31.47;;;;;;;3.00;98.41;101140.31;5019431;28;20076;-72
2021/03/04 04:08:58;;;;;;;61.77;30.10;;;;;;;2.97;98.60;101142.88;5019859;28;20059;-72
2021/03/04 04:11:25;;;;;;;53.37;28.17;;;;;;;2.95;98.73;101134.16;5023294;28;20081;-72
2021/03/04 04:13:52;;;;;;;60.67;28.87;;;;;;;2.94;98.42;101137.56;5019785;28;20034;-72
2021/03/04 04:16:18;;;;;;;55.97;30.10;;;;;;;2.92;98.25;101144.50;5022764;28;20037;-72
2021/03/04 04:18:45;;;;;;;51.93;28.27;;;;;;;2.93;98.18;101143.66;5023860;28;20053;-72
2021/03/04 04:21:13;;;;;;;53.87;26.67;;;;;;;2.91;98.32;101142.75;5003074;28;20042;-73
2021/03/04 04:23:40;;;;;;;54.77;29.23;;;;;;;2.91;98.04;101137.53;5008588;28;20041;-72
2021/03/04 04:26:07;;;;;;;61.37;30.40;;;;;;;2.85;97.89;101138.28;5004621;28;20041;-72
2021/03/04 04:28:33;;;;;;;53.73;28.10;;;;;;;2.85;97.81;101137.41;5006183;28;20037;-72
2021/03/04 04:31:00;;;;;;;57.57;29.23;;;;;;;2.80;98.28;101137.34;5018972;28;20096;-72
2021/03/04 04:33:26;;;;;;;50.53;27.67;;;;;;;2.85;97.59;101126.97;5006196;28;20038;-72
2021/03/04 04:35:53;;;;;;;51.23;27.60;;;;;;;2.79;97.13;101130.38;4991401;28;20565;-72
2021/03/04 04:38:19;;;;;;;57.77;27.50;;;;;;;2.76;97.54;101136.38;5020916;28;20042;-72
2021/03/04 04:40:45;;;;;;;49.50;25.13;;;;;;;2.77;97.09;101130.31;5006925;28;20125;-72
2021/03/04 04:43:12;;;;;;;50.63;24.23;;;;;;;2.76;97.14;101133.78;5003030;28;20033;-72
2021/03/04 04:45:38;;;;;;;60.43;28.53;;;;;;;2.77;96.27;101132.03;5011422;28;20069;-72
2021/03/04 04:48:05;;;;;;;45.80;24.23;;;;;;;2.71;96.86;101122.41;5024596;28;20045;-72
2021/03/04 04:50:32;;;;;;;52.60;24.73;;;;;;;2.66;96.94;101129.25;5039092;28;20045;-72
2021/03/04 04:52:58;;;;;;;54.80;27.30;;;;;;;2.66;97.19;101130.97;5006672;28;20045;-72
2021/03/04 04:55:24;;;;;;;50.37;23.53;;;;;;;2.62;97.35;101124.84;5021298;28;20033;-72
2021/03/04 04:57:50;;;;;;;52.70;25.27;;;;;;;2.63;97.01;101121.38;5005961;28;20099;-72
2021/03/04 05:00:17;;;;;;;53.47;26.20;;;;;;;2.61;97.19;101120.47;5022022;28;20037;-72
2021/03/04 05:02:43;;;;;;;51.47;24.07;;;;;;;2.63;96.59;101115.28;5008835;28;20037;-75
2021/03/04 05:05:10;;;;;;;49.17;24.77;;;;;;;2.64;96.86;101110.09;5003487;28;20538;-75
2021/03/04 05:07:37;;;;;;;48.67;24.90;;;;;;;2.59;97.10;101116.06;5026261;28;20041;-73
2021/03/04 05:10:04;;;;;;;44.33;22.40;;;;;;;2.58;97.46;101109.97;5025216;28;20075;-74
2021/03/04 05:12:30;;;;;;;52.73;26.00;;;;;;;2.51;97.44;101102.88;5022221;28;20524;-75
2021/03/04 05:14:57;;;;;;;57.43;27.23;;;;;;;2.55;97.89;101112.53;5026922;28;20033;-73
2021/03/04 05:17:23;;;;;;;51.97;24.70;;;;;;;2.59;97.87;101103.00;5025487;28;20102;-74
2021/03/04 05:19:50;;;;;;;53.27;25.00;;;;;;;2.53;98.28;101109.00;5023959;28;20045;-73
2021/03/04 05:22:16;;;;;;;55.20;26.13;;;;;;;2.53;98.27;101093.38;5022059;28;20088;-75
2021/03/04 05:24:42;;;;;;;53.47;24.43;;;;;;;2.60;97.92;101110.84;5033707;23;20276;-69
2021/03/04 05:27:09;;;;;;;45.13;23.30;;;;;;;2.53;98.05;101104.66;5040630;28;20045;-70
2021/03/04 05:29:35;;;;;;;50.07;24.33;;;;;;;2.50;98.33;101112.41;5043423;28;20045;-70
2021/03/04 05:32:01;;;;;;;48.10;24.17;;;;;;;2.54;98.25;101105.56;5022394;28;20137;-70
2021/03/04 05:34:27;;;;;;;43.90;23.13;;;;;;;2.49;98.09;101102.84;5029244;28;20045;-71
2021/03/04 05:36:54;;;;;;;42.13;21.77;;;;;;;2.50;97.93;101093.28;5027396;28;20033;-70
2021/03/04 05:39:20;;;;;;;46.63;22.73;;;;;;;2.47;97.99;101093.22;5025660;28;20580;-70
2021/03/04 05:41:46;;;;;;;41.20;21.70;;;;;;;2.49;97.49;101096.75;5026145;28;20048;-70
2021/03/04 05:44:13;;;;;;;42.97;21.37;;;;;;;2.49;97.49;101095.00;5008329;28;20049;-70
2021/03/04 05:46:39;;;;;;;44.73;22.43;;;;;;;2.49;97.16;101088.91;5008819;28;20125;-70
2021/03/04 05:49:10;;;;;;;43.37;21.77;;;;;;;2.49;97.00;101091.53;5027082;28;20062;-71
2021/03/04 05:51:54;;;;;;;42.93;20.23;;;;;;;2.53;95.67;101081.19;5012722;28;20037;-69
2021/03/04 05:54:21;;;;;;;42.10;20.00;;;;;;;2.49;95.85;101088.91;5012802;28;20072;-70
2021/03/04 05:56:49;;;;;;;40.30;19.83;;;;;;;2.47;95.89;101083.69;5022612;28;20124;-69
2021/03/04 05:59:16;;;;;;;39.03;21.40;;;;;;;2.47;95.62;101085.41;5012029;28;20037;-70
2021/03/04 06:01:42;;;;;;;44.50;22.33;;;;;;;2.44;95.61;101096.69;5013960;28;20073;-70
2021/03/04 06:04:10;;;;;;;51.90;21.70;;;;;;;2.43;95.57;101094.88;5025612;28;20034;-70
2021/03/04 06:06:37;;;;;;;49.10;22.10;;;;;;;2.46;95.34;101094.09;5031932;28;20041;-70
2021/03/04 06:09:03;;;;;;;36.90;19.50;;;;;;;2.44;95.77;101103.63;5032420;28;20045;-69
2021/03/04 06:11:30;;;;;;;42.27;21.40;;;;;;;2.40;95.65;101099.19;5014532;28;20045;-69
2021/03/04 06:13:59;;;;;;;37.27;19.67;;;;;;;2.42;95.86;101095.75;5027940;28;20045;-70
2021/03/04 06:16:25;;;;;;;39.87;22.33;;;;;;;2.44;95.53;101101.88;5023375;28;20041;-70
2021/03/04 06:18:52;;;;;;;33.57;18.90;;;;;;;2.44;95.82;101096.69;5022952;28;20069;-70
2021/03/04 06:21:28;;;;;;;40.27;20.23;;;;;;;2.44;96.05;101096.69;5022578;28;20518;-70
2021/03/04 06:23:57;;;;;;;39.30;19.93;;;;;;;2.45;95.64;101094.94;5017759;28;20040;-70
2021/03/04 06:26:36;;;;;;;44.43;22.23;;;;;;;2.46;95.93;101100.19;5023406;28;20051;-69
2021/03/04 06:29:16;;;;;;;40.60;19.47;;;;;;;2.47;96.15;101098.44;5004239;28;20056;-70
2021/03/04 06:31:44;;;;;;;42.87;21.10;;;;;;;2.48;95.79;101108.03;5010623;28;20051;-70
2021/03/04 06:34:21;;;;;;;41.87;20.23;;;;;;;2.50;95.78;101104.59;5041633;28;20458;-70
2021/03/04 06:36:58;;;;;;;42.73;21.80;;;;;;;2.50;95.86;101108.94;5031609;28;20053;-68
2021/03/04 06:39:26;;;;;;;45.47;22.97;;;;;;;2.53;95.83;101111.63;5009962;28;20501;-71
2021/03/04 06:42:03;;;;;;;47.97;24.37;;;;;;;2.54;96.17;101115.97;5041797;28;20053;-70
2021/03/04 06:44:50;;;;;;;44.90;20.63;;;;;;;2.50;96.39;101108.94;5043163;28;20491;-69
2021/03/04 06:47:25;;;;;;;37.73;20.13;;;;;;;2.54;96.23;101115.97;5037835;28;20064;-71
2021/03/04 06:49:52;;;;;;;49.80;22.10;;;;;;;2.54;96.75;101108.16;5039500;28;20052;-70
2021/03/04 06:52:38;;;;;;;48.03;23.57;;;;;;;2.57;96.46;101108.19;5033274;28;20061;-69
2021/03/04 06:55:14;;;;;;;45.90;22.77;;;;;;;2.61;95.08;101109.16;5039352;28;20034;-68
2021/03/04 06:57:41;;;;;;;43.13;21.23;;;;;;;2.59;94.97;101108.22;5038325;28;20044;-70
2021/03/04 07:00:19;;;;;;;45.30;19.87;;;;;;;2.56;94.53;101106.44;5029974;28;20033;-71
2021/03/04 07:02:52;;;;;;;37.70;21.13;;;;;;;2.49;92.96;101108.06;5015460;28;20516;-70
2021/03/04 07:05:19;;;;;;;46.72;22.05;;;;;;;2.54;93.03;101105.56;5031531;28;20044;-70
2021/03/04 07:07:50;;;;;;;47.10;20.83;;;;;;;2.53;93.39;101106.41;5035349;28;20041;-70
2021/03/04 07:10:17;;;;;;;39.63;20.87;;;;;;;2.54;93.80;101109.03;5035442;28;20037;-70
2021/03/04 07:12:45;;;;;;;39.70;19.60;;;;;;;2.57;93.13;101110.81;5005866;28;20048;-70
2021/03/04 07:15:13;;;;;;;48.83;21.90;;;;;;;2.57;91.54;101104.72;5038843;28;20041;-71
2021/03/04 07:17:41;;;;;;;43.37;21.20;;;;;;;2.61;92.09;101099.59;5024757;28;20386;-70
2021/03/04 07:20:12;;;;;;;44.63;20.97;;;;;;;2.64;92.78;101101.38;5026851;28;20624;-69
2021/03/04 07:22:58;;;;;;;44.63;21.10;;;;;;;2.57;91.40;101100.38;5034509;28;20052;-70
2021/03/04 07:25:24;;;;;;;40.80;19.07;;;;;;;2.67;91.45;101101.44;5038277;28;20041;-69
2021/03/04 07:27:51;;;;;;;36.70;19.27;;;;;;;2.69;91.56;101110.16;5020352;28;20088;-69
2021/03/04 07:30:17;;;;;;;38.10;19.57;;;;;;;2.68;91.30;101106.66;5029517;28;20053;-70
2021/03/04 07:32:43;;;;;;;38.07;19.37;;;;;;;2.70;91.30;101104.13;5027068;28;20041;-70
2021/03/04 07:35:13;;;;;;;36.43;18.87;;;;;;;2.73;91.97;101106.78;5021432;28;20141;-70
2021/03/04 07:37:41;;;;;;;41.13;20.53;;;;;;;2.74;91.92;101098.97;5026552;28;20041;-70
2021/03/04 07:40:11;;;;;;;42.13;19.20;;;;;;;2.78;91.24;101095.56;5030380;28;20053;-69
2021/03/04 07:42:38;;;;;;;38.13;19.83;;;;;;;2.80;91.15;101098.22;5025699;28;20425;-69
2021/03/04 07:45:18;;;;;;;42.40;20.07;;;;;;;2.84;90.87;101092.19;5027724;28;20595;-70
2021/03/04 07:47:44;;;;;;;39.50;16.90;;;;;;;2.85;90.76;101091.31;5021599;28;20045;-69
2021/03/04 07:50:19;;;;;;;36.97;18.87;;;;;;;2.90;90.60;101086.19;5010455;28;20052;-68
2021/03/04 07:52:46;;;;;;;41.40;20.53;;;;;;;2.91;90.51;101095.78;5002168;28;20132;-69
2021/03/04 07:55:14;;;;;;;34.83;18.33;;;;;;;2.93;91.22;101100.16;5040663;28;20048;-70
2021/03/04 07:57:45;;;;;;;39.07;19.70;;;;;;;2.97;91.56;101095.91;5024269;28;20093;-68
2021/03/04 08:00:12;;;;;;;35.67;17.97;;;;;;;2.99;91.56;101097.66;5002624;28;20048;-68
2021/03/04 08:02:39;;;;;;;38.03;18.77;;;;;;;2.98;91.01;101087.22;5008001;28;20156;-70
2021/03/04 08:05:09;;;;;;;36.40;20.17;;;;;;;2.94;89.83;101088.00;5026149;28;20128;-69
2021/03/04 08:07:40;;;;;;;35.03;18.57;;;;;;;2.97;89.10;101090.69;5027515;28;20451;-70
2021/03/04 08:10:17;;;;;;;38.70;18.07;;;;;;;2.96;88.26;101091.53;5018495;28;20065;-69
2021/03/04 08:12:55;;;;;;;34.27;18.63;;;;;;;3.02;87.97;101091.59;5027861;28;20034;-70
2021/03/04 08:15:41;;;;;;;31.57;18.30;;;;;;;3.13;86.79;101086.59;5026114;28;20129;-71
2021/03/04 08:18:21;;;;;;;33.90;18.27;;;;;;;3.20;85.30;101083.25;5036786;28;20072;-68
2021/03/04 08:20:49;;;;;;;29.00;15.27;;;;;;;3.30;85.70;101086.00;5025081;28;20450;-70
2021/03/04 08:23:16;;;;;;;30.03;15.63;;;;;;;3.42;85.75;101085.31;5024320;28;20041;-69
2021/03/04 08:25:44;;;;;;;29.47;15.17;;;;;;;3.47;84.31;101091.50;5021946;28;20049;-70
2021/03/04 08:28:20;;;;;;;31.87;17.33;;;;;;;3.44;83.42;101091.44;5027450;28;20045;-70
2021/03/04 08:30:46;;;;;;;31.73;16.30;;;;;;;3.48;83.84;101094.97;4999573;28;20044;-70
2021/03/04 08:33:13;;;;;;;30.73;17.33;;;;;;;3.41;82.05;101093.13;5024792;28;20493;-69
2021/03/04 08:35:44;;;;;;;30.97;16.53;;;;;;;3.41;83.17;101090.53;5026360;28;20469;-70
2021/03/04 08:38:15;;;;;;;34.00;15.87;;;;;;;3.41;82.88;101095.75;5026812;28;20052;-69
2021/03/04 08:40:44;;;;;;;30.00;15.27;;;;;;;3.35;82.44;101094.78;5007736;28;20218;-70
2021/03/04 08:43:15;;;;;;;24.47;14.33;;;;;;;3.37;80.41;101098.31;5016571;28;20052;-69
2021/03/04 08:45:42;;;;;;;34.83;16.57;;;;;;;3.20;81.44;101089.34;4994666;28;20045;-70
2021/03/04 08:48:11;;;;;;;28.87;17.00;;;;;;;3.17;82.41;101094.47;5023915;28;20642;-69
2021/03/04 08:50:44;;;;;;;28.70;15.80;;;;;;;3.23;83.03;101078.94;5020247;28;20698;-69
2021/03/04 08:53:15;;;;;;;25.57;13.70;;;;;;;3.22;82.24;101085.00;5016327;28;20400;-69
2021/03/04 08:55:58;;;;;;;28.40;14.67;;;;;;;3.24;81.26;101074.59;5026601;28;20053;-69
2021/03/04 08:58:25;;;;;;;28.40;16.00;;;;;;;3.11;81.67;101089.16;5025569;28;20461;-69
2021/03/04 09:00:54;;;;;;;27.27;15.10;;;;;;;3.08;82.88;101089.13;5025738;28;20123;-69
2021/03/04 09:03:25;;;;;;;25.90;14.57;;;;;;;3.16;82.85;101097.94;5008625;28;20526;-69
2021/03/04 09:06:09;;;;;;;29.00;15.60;;;;;;;3.14;82.21;101099.66;5020604;28;20140;-70
2021/03/04 09:08:40;;;;;;;27.88;14.13;;;;;;;3.05;83.09;101110.84;5021451;28;20045;-69
2021/03/04 09:11:08;;;;;;;26.80;14.23;;;;;;;3.10;83.77;101106.56;4999991;28;20056;-68
2021/03/04 09:13:36;;;;;;;25.13;13.53;;;;;;;3.11;82.84;101094.38;5021970;28;20029;-69
2021/03/04 09:16:06;;;;;;;27.00;13.57;;;;;;;3.01;82.38;101109.00;5022492;28;20514;-69
2021/03/04 09:18:44;;;;;;;28.47;14.00;;;;;;;2.92;81.72;101106.25;5019856;28;20552;-70
2021/03/04 09:21:14;;;;;;;22.13;13.13;;;;;;;2.89;82.11;101105.31;5041513;28;20487;-69
2021/03/04 09:23:41;;;;;;;21.73;12.03;;;;;;;2.85;82.19;101108.72;5022196;28;20045;-70
2021/03/04 09:26:08;;;;;;;20.53;12.43;;;;;;;2.76;82.90;101105.06;5006699;28;20434;-68
2021/03/04 09:28:36;;;;;;;21.57;11.20;;;;;;;2.78;83.09;101110.34;5005976;28;20415;-69
2021/03/04 09:31:10;;;;;;;22.97;11.60;;;;;;;2.69;82.95;101110.16;5007950;28;20103;-69
2021/03/04 09:33:37;;;;;;;;;;;;;;;2.50;83.04;101121.97;5040030;28;20038;-68
2021/03/04 09:36:05;;;;;;;20.43;9.77;;;;;;;2.36;84.21;101120.84;4998694;28;19936;-69
2021/03/04 09:38:33;;;;;;;17.70;8.23;;;;;;;2.34;83.14;101122.50;5023210;28;20045;-69
2021/03/04 09:41:12;;;;;;;13.27;7.77;;;;;;;2.33;84.46;101120.75;5020741;28;20033;-69
2021/03/04 09:43:40;;;;;;;14.07;7.23;;;;;;;2.44;84.39;101119.25;5021104;28;20078;-70
2021/03/04 09:46:11;;;;;;;11.87;7.27;;;;;;;2.44;83.45;101114.06;5005692;28;20520;-70
2021/03/04 09:48:39;;;;;;;14.10;7.00;;;;;;;2.47;82.39;101121.91;5023433;28;20056;-69
2021/03/04 09:51:06;;;;;;;11.17;5.83;;;;;;;2.49;83.04;101126.31;5024710;28;20037;-69
2021/03/04 09:53:48;;;;;;;13.27;6.03;;;;;;;2.36;82.29;101119.09;5022942;28;20037;-69
2021/03/04 09:56:21;;;;;;;8.90;5.93;;;;;;;2.41;82.38;101120.06;5040548;28;20045;-69
2021/03/04 09:58:47;;;;;;;8.47;5.23;;;;;;;2.46;82.44;101117.56;5026070;28;20052;-69
2021/03/04 10:01:13;;;;;;;8.83;5.00;;;;;;;2.62;82.32;101113.53;5005347;28;20046;-70
2021/03/04 10:03:42;;;;;;;7.10;3.87;;;;;;;2.63;80.81;101117.88;5008819;28;20084;-69
2021/03/04 10:06:21;;;;;;;5.63;3.53;;;;;;;2.55;82.04;101117.75;5021981;28;20379;-70
2021/03/04 10:08:53;;;;;;;5.77;3.47;;;;;;;2.61;81.89;101112.66;5003398;28;20634;-68
2021/03/04 10:11:25;;;;;;;6.63;4.30;;;;;;;2.63;81.66;101113.53;5004284;28;20332;-69
2021/03/04 10:13:51;;;;;;;5.17;3.30;;;;;;;2.71;81.44;101106.75;5019355;28;20071;-68
2021/03/04 10:16:18;;;;;;;6.43;3.70;;;;;;;2.61;81.45;101117.00;5030281;28;20044;-69
2021/03/04 10:18:46;;;;;;;8.57;4.30;;;;;;;2.42;81.87;101116.59;5026563;28;20407;-69
2021/03/04 10:21:13;;;;;;;7.90;3.83;;;;;;;2.60;82.38;101121.28;5022285;28;20083;-69
2021/03/04 10:23:39;;;;;;;6.70;3.80;;;;;;;2.72;82.46;101124.16;5025867;28;20029;-70
2021/03/04 10:26:05;;;;;;;7.17;3.67;;;;;;;2.73;81.32;101127.63;5026428;28;20061;-70
2021/03/04 10:28:32;;;;;;;8.80;4.53;;;;;;;2.74;82.15;101134.59;5004703;28;20106;-69
2021/03/04 10:30:58;;;;;;;7.80;3.83;;;;;;;2.72;81.39;101131.97;5024425;28;20048;-68
2021/03/04 10:33:24;;;;;;;8.87;4.43;;;;;;;2.66;81.82;101133.59;5019012;28;20054;-69
2021/03/04 10:35:51;;;;;;;6.73;4.03;;;;;;;2.54;82.73;101121.19;5023108;28;20060;-70
2021/03/04 10:38:17;;;;;;;9.50;4.93;;;;;;;2.51;84.24;101131.56;5008079;28;20847;-70
2021/03/04 10:40:43;;;;;;;10.03;4.80;;;;;;;2.37;83.96;101130.41;5020475;28;20048;-70
2021/03/04 10:43:10;;;;;;;8.47;4.50;;;;;;;2.40;84.77;101136.56;5023378;28;20044;-69
2021/03/04 10:45:36;;;;;;;7.30;4.17;;;;;;;2.49;84.46;101134.13;5008959;28;20042;-70
2021/03/04 10:48:02;;;;;;;9.50;4.30;;;;;;;2.47;84.90;101135.84;5022150;28;20115;-70
2021/03/04 10:50:29;;;;;;;7.67;4.87;;;;;;;2.53;84.97;101129.88;5022208;28;20100;-70
2021/03/04 10:52:55;;;;;;;8.40;4.80;;;;;;;2.58;85.41;101135.16;5014546;28;20088;-70
2021/03/04 10:55:37;;;;;;;7.33;5.03;;;;;;;2.47;85.70;101134.97;5019692;28;20502;-68
2021/03/04 10:58:04;;;;;;;8.07;4.60;;;;;;;2.50;85.40;101132.41;5002876;28;20037;-68
2021/03/04 11:00:30;;;;;;;8.17;4.50;;;;;;;2.47;85.56;101135.84;5024305;28;20045;-68
2021/03/04 11:02:56;;;;;;;6.70;4.03;;;;;;;2.37;85.77;101133.03;5027613;28;20473;-68
2021/03/04 11:05:23;;;;;;;7.97;4.90;;;;;;;2.36;86.29;101129.53;5008388;28;20710;-68
2021/03/04 11:07:49;;;;;;;9.73;6.30;;;;;;;2.34;86.24;101138.16;5025585;28;20049;-68
2021/03/04 11:10:15;;;;;;;9.97;6.00;;;;;;;2.34;86.44;101125.13;5021541;28;20111;-68
2021/03/04 11:12:47;;;;;;;9.87;4.97;;;;;;;2.35;86.81;101121.66;5026928;28;20060;-68
2021/03/04 11:15:14;;;;;;;7.83;4.60;;;;;;;2.38;86.38;101137.38;5023098;28;20091;-67
2021/03/04 11:17:40;;;;;;;7.60;4.53;;;;;;;2.37;87.14;101122.59;5027090;28;20042;-67
2021/03/04 11:20:08;;;;;;;8.67;5.00;;;;;;;2.37;87.84;101117.38;5023317;28;20115;-67
2021/03/04 11:22:34;;;;;;;8.47;4.57;;;;;;;2.43;87.00;101107.94;5004803;28;20033;-68
2021/03/04 11:25:01;;;;;;;8.43;4.60;;;;;;;2.58;86.95;101103.88;5010418;28;20042;-68